Huvudsida
METAR-TAF:

METAR-TAF

Flygplatser :

Beauvechain Air Base

Beauvechain, Belgien

latitud: 50-45N, longitud: 004-46E, höjd: 105 m

Aktuellt väderrapport

Denna rapport gjordes för 45 minuter sedan, klockan 14:55 UTC
Vind 19 kt från nord/nordost
Temperatur 5°C
Fuktighet 48%
Tryck 1029 hPa
Sikt 10 km eller mer

METAR: EBBE 291455Z AUTO 02019KT 9999 BKN048/// OVC070/// 05/M05 Q1029 BLU

Tid: 17:40 (15:40 UTC)


TAF: saknas

Aktuella väderrapporter och prognoser från 4000 flygplatser (METAR- och TAF-rapporter).

De tillgängliga stationerna syns som gula och röda prickar på kartan.

För musen över prickarna för att se namnen på stationerna.

Klicka sedan för att få väderrapporter och prognoser.

För att ändra kartan: Klicka på de gröna knapparna med ett svart kors på för att zooma in; den gröna knappen med ett streck på för att zooma ut; eller på de gröna pilarna för angränsande kartor.


METAR-TAF: